Time;durP1;ratioP1;P1;durP2;ratioP2;P2;SDS_P1;SDS_P2;PMS_P1;PMS_P2;Temp;Humidity;BMP_temperature;BMP_pressure;BME280_temperature;BME280_humidity;BME280_pressure;Samples;Min_cycle;Max_cycle;Signal;HPM_P1;HPM_P2
2020/12/22 00:01:04;;;;;;;10.20;6.00;;;27.30;80.70;;;;;;5003793;28;20034;-90
2020/12/22 00:03:44;;;;;;;10.80;7.07;;;27.20;81.30;;;;;;5014065;28;20037;-91
2020/12/22 00:06:53;;;;;;;12.07;6.78;;;27.20;81.60;;;;;;5006144;28;20027;-89
2020/12/22 00:09:59;;;;;;;;;;;;;;;;;;;;;
2020/12/22 00:13:29;;;;;;;4.88;3.13;;;27.20;80.60;;;;;;4988842;28;20022;-91
2020/12/22 00:16:28;;;;;;;5.32;3.25;;;27.10;80.90;;;;;;5002545;28;20034;-93
2020/12/22 00:19:18;;;;;;;5.45;3.13;;;27.10;82.20;;;;;;5000096;28;20030;-91
2020/12/22 00:22:01;;;;;;;4.25;2.67;;;27.00;82.90;;;;;;5000721;28;20122;-92
2020/12/22 00:24:39;;;;;;;3.60;2.40;;;26.90;82.60;;;;;;5007762;28;20315;-92
2020/12/22 00:44:38;;;;;;;2.72;1.70;;;26.70;83.10;;;;;;5234032;23;20092;-95
2020/12/22 00:47:09;;;;;;;3.72;1.40;;;26.70;83.50;;;;;;5029850;28;20038;-90
2020/12/22 00:49:48;;;;;;;3.28;1.60;;;26.70;83.20;;;;;;5041422;28;20381;-92
2020/12/22 00:58:12;;;;;;;5.03;1.50;;;26.50;83.70;;;;;;5064141;23;20259;-92
2020/12/22 01:00:52;;;;;;;2.75;1.33;;;26.50;83.90;;;;;;4957976;29;20056;-89
2020/12/22 01:03:41;;;;;;;2.53;1.60;;;26.50;83.80;;;;;;4952203;29;20034;-91
2020/12/22 01:06:08;;;;;;;3.25;1.67;;;26.50;83.30;;;;;;4949949;29;20027;-87
2020/12/22 01:08:39;;;;;;;3.03;1.48;;;26.50;83.30;;;;;;4966743;29;20086;-92
2020/12/22 01:11:09;;;;;;;3.85;1.75;;;26.40;83.30;;;;;;4935833;29;20059;-90
2020/12/22 01:13:41;;;;;;;5.70;1.67;;;26.40;82.90;;;;;;4949402;29;20106;-93
2020/12/22 01:16:30;;;;;;;2.55;1.63;;;26.40;83.80;;;;;;4927076;29;20039;-92
2020/12/22 01:22:17;;;;;;;6.40;3.10;;;26.20;84.30;;;;;;4938476;29;20036;-93
2020/12/22 01:24:48;;;;;;;5.22;3.00;;;26.20;84.00;;;;;;4960414;28;20033;-91
2020/12/22 01:27:41;;;;;;;7.50;2.70;;;26.20;84.80;;;;;;4984292;28;20366;-91
2020/12/22 01:33:39;;;;;;;5.55;2.17;;;26.20;84.30;;;;;;4958761;28;20034;-89
2020/12/22 01:36:09;;;;;;;6.35;2.25;;;26.20;84.10;;;;;;4898678;29;20074;-90
2020/12/22 01:38:36;;;;;;;3.25;1.95;;;26.10;83.70;;;;;;4981803;28;20350;-90
2020/12/22 01:41:16;;;;;;;4.50;2.58;;;26.00;84.00;;;;;;4965369;28;20131;-89
2020/12/22 01:44:20;;;;;;;4.65;2.60;;;26.00;84.20;;;;;;4984897;28;20039;-91
2020/12/22 01:47:19;;;;;;;6.22;2.90;;;26.00;83.50;;;;;;4989740;28;20113;-89
2020/12/22 01:49:48;;;;;;;8.82;4.20;;;26.00;84.20;;;;;;4986170;28;20133;-89
2020/12/22 01:52:20;;;;;;;5.50;3.10;;;25.90;84.60;;;;;;4985123;28;20050;-90
2020/12/22 01:54:50;;;;;;;7.30;2.80;;;26.00;85.30;;;;;;5004079;28;20026;-89
2020/12/22 01:57:17;;;;;;;5.70;3.63;;;25.90;84.90;;;;;;5003523;28;20097;-90
2020/12/22 01:59:52;;;;;;;7.25;3.67;;;25.90;84.80;;;;;;5005533;28;20039;-91
2020/12/22 02:02:46;;;;;;;5.43;3.55;;;25.80;84.80;;;;;;5005256;28;20242;-89
2020/12/22 02:11:53;;;;;;;4.07;2.03;;;25.80;85.60;;;;;;4924610;28;20103;-90
2020/12/22 02:14:21;;;;;;;4.82;2.00;;;25.70;84.80;;;;;;5005377;28;20026;-91
2020/12/22 02:16:48;;;;;;;2.30;1.63;;;25.70;84.80;;;;;;4979940;28;20039;-89
2020/12/22 02:19:15;;;;;;;3.88;1.75;;;25.80;84.70;;;;;;5020101;28;20029;-89
2020/12/22 02:21:51;;;;;;;2.25;1.63;;;25.70;84.80;;;;;;5015088;28;20053;-90
2020/12/22 02:30:57;;;;;;;7.32;5.55;;;25.60;84.40;;;;;;4890669;29;20095;-89
2020/12/22 02:33:35;;;;;;;3.50;2.97;;;25.60;83.60;;;;;;5010343;28;20039;-90
2020/12/22 02:36:10;;;;;;;8.35;4.55;;;25.60;83.60;;;;;;5020497;28;20223;-90
2020/12/22 02:38:38;;;;;;;7.47;4.40;;;25.60;83.30;;;;;;5014925;28;20034;-91
2020/12/22 02:41:15;;;;;;;9.20;6.97;;;25.60;83.20;;;;;;4993054;28;20031;-90
2020/12/22 02:43:55;;;;;;;8.57;5.43;;;25.60;83.00;;;;;;5162428;23;20064;-91
2020/12/22 02:46:26;;;;;;;12.23;9.23;;;25.60;82.40;;;;;;5033297;28;20029;-91
2020/12/22 02:49:15;;;;;;;16.88;11.48;;;25.50;83.00;;;;;;5032007;28;20042;-94
2020/12/22 02:51:45;;;;;;;16.30;10.65;;;25.50;83.10;;;;;;5012038;28;20041;-94
2020/12/22 02:54:12;;;;;;;20.23;11.88;;;25.50;83.50;;;;;;5008217;28;20109;-92
2020/12/22 02:56:38;;;;;;;14.85;8.40;;;25.40;83.50;;;;;;5013568;28;20318;-92
2020/12/22 02:59:43;;;;;;;18.00;11.32;;;25.40;83.40;;;;;;5015561;28;20111;-91
2020/12/22 03:02:16;;;;;;;15.80;11.63;;;25.30;83.80;;;;;;5005031;28;20025;-90
2020/12/22 03:04:53;;;;;;;13.70;10.02;;;25.30;83.60;;;;;;5014829;28;20031;-92
2020/12/22 03:07:29;;;;;;;6.65;4.70;;;25.20;83.90;;;;;;5011281;28;20030;-94
2020/12/22 03:10:00;;;;;;;6.45;3.60;;;25.20;83.70;;;;;;5009549;28;20037;-91
2020/12/22 03:12:42;;;;;;;6.20;3.45;;;25.10;84.40;;;;;;5017216;28;20054;-92
2020/12/22 03:15:09;;;;;;;5.90;3.53;;;25.10;84.20;;;;;;4975672;28;20045;-91
2020/12/22 03:17:37;;;;;;;5.60;3.28;;;25.10;84.30;;;;;;4978177;28;20046;-91
2020/12/22 03:20:17;;;;;;;6.57;2.80;;;25.10;84.20;;;;;;4979720;28;20050;-91
2020/12/22 03:23:25;;;;;;;5.53;2.40;;;25.10;83.90;;;;;;4978166;28;20034;-94
2020/12/22 03:25:54;;;;;;;3.40;2.20;;;25.10;83.50;;;;;;5144905;23;20025;-90
2020/12/22 03:28:21;;;;;;;6.10;2.28;;;25.10;83.10;;;;;;5050981;28;20037;-93
2020/12/22 03:30:55;;;;;;;4.80;2.13;;;25.10;83.50;;;;;;5043455;28;20112;-90
2020/12/22 03:33:30;;;;;;;4.00;2.50;;;25.00;83.30;;;;;;5049176;28;20068;-92
2020/12/22 03:36:00;;;;;;;2.60;2.30;;;24.90;83.40;;;;;;5022292;28;20226;-92
2020/12/22 03:38:30;;;;;;;3.97;2.20;;;24.90;83.80;;;;;;5047591;28;20036;-93
2020/12/22 03:40:59;;;;;;;3.78;2.03;;;24.90;83.60;;;;;;5040688;28;20029;-95
2020/12/22 03:43:35;;;;;;;2.15;1.73;;;24.90;83.20;;;;;;5048157;28;20040;-95
2020/12/22 03:46:01;;;;;;;3.55;1.90;;;24.90;82.90;;;;;;5030665;28;20030;-94
2020/12/22 03:48:28;;;;;;;2.88;1.80;;;24.80;83.70;;;;;;5030424;28;20040;-93
2020/12/22 03:51:23;;;;;;;3.05;1.70;;;24.80;82.70;;;;;;5020218;28;20034;-94
2020/12/22 03:53:42;;;;;;;2.83;1.92;;;24.80;82.80;;;;;;5026396;28;20238;-93
2020/12/22 03:56:09;;;;;;;5.50;2.95;;;24.70;82.90;;;;;;5022693;28;20030;-93
2020/12/22 03:59:06;;;;;;;8.10;2.47;;;24.70;83.70;;;;;;5026412;28;20026;-94
2020/12/22 04:01:35;;;;;;;5.20;1.60;;;24.60;82.80;;;;;;5025053;28;20030;-92
2020/12/22 04:04:14;;;;;;;1.98;1.30;;;24.70;83.10;;;;;;5021939;28;20214;-94
2020/12/22 04:06:48;;;;;;;5.28;1.42;;;24.70;82.20;;;;;;5027359;28;20038;-94
2020/12/22 04:09:17;;;;;;;2.95;1.20;;;24.70;82.40;;;;;;5006940;28;20044;-92
2020/12/22 04:11:48;;;;;;;2.85;1.50;;;24.70;81.90;;;;;;5026244;28;20034;-93
2020/12/22 04:14:34;;;;;;;2.90;1.55;;;24.60;82.40;;;;;;5025946;28;20034;-92
2020/12/22 04:17:01;;;;;;;3.28;1.42;;;24.60;82.10;;;;;;5025338;28;20029;-93
2020/12/22 04:19:37;;;;;;;2.17;1.60;;;24.60;82.20;;;;;;5024868;28;20218;-92
2020/12/22 04:22:06;;;;;;;2.72;1.35;;;24.60;82.10;;;;;;5020562;28;20025;-93
2020/12/22 04:24:36;;;;;;;3.67;1.45;;;24.50;81.50;;;;;;5025254;28;20041;-92
2020/12/22 04:27:08;;;;;;;2.80;1.33;;;24.60;81.80;;;;;;4999311;28;20035;-93
2020/12/22 04:33:14;;;;;;;1.70;1.38;;;24.50;82.40;;;;;;4948239;29;20031;-93
2020/12/22 04:35:53;;;;;;;1.83;1.40;;;24.50;82.20;;;;;;4947086;29;20071;-95
2020/12/22 04:38:20;;;;;;;3.03;1.58;;;24.50;82.30;;;;;;4931372;29;20083;-93
2020/12/22 04:41:10;;;;;;;3.95;1.80;;;24.50;82.60;;;;;;4946167;29;20032;-93
2020/12/22 04:44:09;;;;;;;3.47;1.80;;;24.50;83.00;;;;;;4947220;29;20075;-93
2020/12/22 04:46:39;;;;;;;4.65;1.50;;;24.50;83.20;;;;;;4918542;28;20028;-94
2020/12/22 04:49:12;;;;;;;2.58;1.40;;;24.50;83.10;;;;;;4949632;28;20042;-94
2020/12/22 04:51:41;;;;;;;2.78;1.40;;;24.40;82.90;;;;;;4984159;28;20155;-94
2020/12/22 04:54:08;;;;;;;3.33;1.75;;;24.40;83.30;;;;;;4984029;28;20186;-94
2020/12/22 04:56:38;;;;;;;1.90;1.52;;;24.40;82.90;;;;;;4984309;28;20027;-94
2020/12/22 04:59:07;;;;;;;1.73;1.40;;;24.30;83.40;;;;;;4984046;28;20342;-93
2020/12/22 05:01:34;;;;;;;2.33;1.30;;;24.40;82.50;;;;;;4984473;28;20027;-93
2020/12/22 05:04:01;;;;;;;2.55;1.80;;;24.40;83.00;;;;;;4993590;28;20154;-94
2020/12/22 05:06:30;;;;;;;5.70;1.85;;;24.40;82.70;;;;;;5004474;28;20033;-94
2020/12/22 05:09:06;;;;;;;3.30;1.90;;;24.40;83.20;;;;;;4998296;28;20034;-93
2020/12/22 05:11:38;;;;;;;4.28;1.90;;;24.40;83.20;;;;;;5004123;28;20026;-93
2020/12/22 05:14:08;;;;;;;3.85;1.80;;;24.30;83.60;;;;;;4998350;28;20036;-94
2020/12/22 05:16:38;;;;;;;4.30;1.90;;;24.20;83.20;;;;;;5003897;28;20310;-93
2020/12/22 05:19:05;;;;;;;2.88;1.83;;;24.20;83.60;;;;;;4999137;28;20038;-94
2020/12/22 05:21:40;;;;;;;3.50;1.58;;;24.20;83.70;;;;;;5004194;28;20410;-94
2020/12/22 05:24:11;;;;;;;5.70;1.73;;;24.20;83.20;;;;;;4998977;28;20042;-94
2020/12/22 05:26:38;;;;;;;3.53;2.08;;;24.20;83.20;;;;;;5003882;28;20331;-94
2020/12/22 05:29:25;;;;;;;6.45;1.42;;;24.20;82.80;;;;;;4998321;28;20042;-95
2020/12/22 05:32:12;;;;;;;2.08;1.27;;;24.20;81.80;;;;;;5003953;28;20246;-93
2020/12/22 05:34:43;;;;;;;3.03;1.42;;;24.20;81.20;;;;;;5003641;28;20038;-93
2020/12/22 05:37:19;;;;;;;2.08;1.17;;;24.20;81.20;;;;;;4999359;28;20323;-94
2020/12/22 05:39:57;;;;;;;1.98;1.02;;;24.20;79.20;;;;;;5004023;28;20363;-95
2020/12/22 05:45:50;;;;;;;2.10;0.90;;;24.30;78.10;;;;;;5014531;28;20022;-93
2020/12/22 05:49:06;;;;;;;2.40;1.30;;;24.40;77.40;;;;;;5010637;28;20038;-94
2020/12/22 05:51:43;;;;;;;1.90;0.95;;;24.40;77.60;;;;;;5015017;28;20030;-94
2020/12/22 05:54:14;;;;;;;1.25;0.88;;;24.50;77.00;;;;;;5011785;28;20042;-93
2020/12/22 05:56:41;;;;;;;1.65;0.98;;;24.50;77.40;;;;;;5016592;28;20022;-92
2020/12/22 05:59:21;;;;;;;1.27;0.80;;;24.50;76.50;;;;;;5010903;28;20030;-94
2020/12/22 06:01:48;;;;;;;2.17;0.98;;;24.50;77.30;;;;;;5010043;28;20027;-93
2020/12/22 06:04:29;;;;;;;1.88;0.90;;;24.50;76.90;;;;;;5004650;28;20030;-93
2020/12/22 06:06:57;;;;;;;1.20;0.75;;;24.60;76.90;;;;;;5008297;28;20060;-93
2020/12/22 06:09:24;;;;;;;1.67;0.90;;;24.60;76.00;;;;;;5007371;28;20030;-93
2020/12/22 06:12:00;;;;;;;1.13;0.90;;;24.70;75.50;;;;;;5000683;28;20033;-94
2020/12/22 06:14:36;;;;;;;1.60;0.70;;;24.70;75.00;;;;;;5007244;28;20030;-93
2020/12/22 06:17:12;;;;;;;1.20;1.02;;;24.70;75.50;;;;;;5001675;28;20050;-95
2020/12/22 06:19:43;;;;;;;1.58;0.70;;;24.60;75.40;;;;;;5023336;28;20049;-93
2020/12/22 06:22:20;;;;;;;2.75;1.08;;;24.60;75.70;;;;;;5002094;28;20110;-93
2020/12/22 06:24:57;;;;;;;1.98;1.23;;;24.60;75.60;;;;;;5007299;28;20034;-94
2020/12/22 06:27:36;;;;;;;1.70;0.90;;;24.60;75.80;;;;;;4999140;28;20050;-94
2020/12/22 06:30:09;;;;;;;1.40;0.77;;;24.60;75.70;;;;;;4990400;28;20034;-93
2020/12/22 06:32:36;;;;;;;3.28;1.13;;;24.50;76.00;;;;;;4990809;28;20030;-95
2020/12/22 06:35:33;;;;;;;2.28;0.65;;;24.50;76.20;;;;;;4991729;28;20110;-93
2020/12/22 06:38:02;;;;;;;1.58;0.90;;;24.50;76.50;;;;;;4992170;28;20042;-93
2020/12/22 06:40:54;;;;;;;1.20;0.85;;;24.40;75.90;;;;;;4991162;28;20033;-94
2020/12/22 06:44:07;;;;;;;2.22;1.20;;;24.40;76.70;;;;;;4990833;28;20030;-95
2020/12/22 06:46:42;;;;;;;2.67;0.88;;;24.30;76.80;;;;;;4967050;28;20063;-95
2020/12/22 06:49:44;;;;;;;;;;;;;;;;;;;;;
2020/12/22 06:52:44;;;;;;;1.77;0.70;;;24.30;77.20;;;;;;4968558;28;20055;-94
2020/12/22 06:55:14;;;;;;;2.13;1.00;;;24.30;77.20;;;;;;4988506;28;20111;-93
2020/12/22 06:58:43;;;;;;;;;;;;;;;;;;;;;
2020/12/22 07:01:30;;;;;;;0.80;0.60;;;24.20;78.00;;;;;;5007922;28;20057;-95
2020/12/22 07:04:27;;;;;;;1.02;0.70;;;24.20;77.50;;;;;;4990062;28;20026;-93
2020/12/22 07:07:04;;;;;;;1.13;0.80;;;24.20;77.90;;;;;;4989497;28;20041;-94
2020/12/22 07:09:33;;;;;;;1.90;0.68;;;24.20;77.70;;;;;;4989887;28;20097;-94
2020/12/22 07:12:14;;;;;;;1.77;0.73;;;24.20;77.70;;;;;;4991745;28;20027;-94
2020/12/22 07:15:23;;;;;;;;;;;;;;;;;;;;;
2020/12/22 07:18:02;;;;;;;2.33;0.77;;;24.20;77.90;;;;;;4986802;28;20050;-94
2020/12/22 07:20:41;;;;;;;2.50;0.93;;;24.20;78.20;;;;;;4986681;28;20030;-94
2020/12/22 07:23:09;;;;;;;2.20;0.70;;;24.10;79.30;;;;;;4986615;28;20034;-95
2020/12/22 07:25:37;;;;;;;1.30;0.95;;;24.10;79.10;;;;;;4986470;28;20068;-93
2020/12/22 07:28:22;;;;;;;3.00;1.30;;;24.10;79.00;;;;;;4985896;28;20058;-95
2020/12/22 07:30:48;;;;;;;3.00;0.65;;;24.00;79.50;;;;;;4984277;28;20027;-95
2020/12/22 07:33:15;;;;;;;2.47;0.95;;;24.00;79.50;;;;;;4986136;28;20031;-93
2020/12/22 07:35:43;;;;;;;1.73;0.98;;;24.00;79.80;;;;;;4986070;28;20101;-94
2020/12/22 07:38:15;;;;;;;1.90;0.80;;;24.00;79.60;;;;;;4987626;28;20030;-95
2020/12/22 07:40:52;;;;;;;1.55;1.00;;;24.00;80.00;;;;;;4997354;28;20045;-95
2020/12/22 07:43:46;;;;;;;1.05;0.80;;;24.00;80.20;;;;;;5003054;28;20031;-94
2020/12/22 07:46:21;;;;;;;1.10;0.93;;;24.00;81.00;;;;;;5006323;28;20121;-94
2020/12/22 07:48:51;;;;;;;0.75;0.63;;;23.90;80.50;;;;;;5006062;28;20101;-95
2020/12/22 07:51:26;;;;;;;1.58;0.70;;;23.90;80.70;;;;;;5006448;28;20294;-95
2020/12/22 07:54:04;;;;;;;1.67;0.77;;;23.90;80.60;;;;;;5006012;28;20030;-95
2020/12/22 07:56:32;;;;;;;1.10;0.80;;;23.80;80.30;;;;;;5005972;28;20037;-94
2020/12/22 07:59:03;;;;;;;2.38;0.80;;;23.80;80.10;;;;;;5000405;28;20053;-93
2020/12/22 08:01:38;;;;;;;1.67;0.80;;;23.80;80.60;;;;;;5006247;28;20039;-93
2020/12/22 08:04:31;;;;;;;1.70;0.88;;;23.80;80.60;;;;;;5001267;28;20077;-92
2020/12/22 08:06:59;;;;;;;;;;;23.80;80.70;;;;;;5004754;28;20034;-92
2020/12/22 08:09:33;;;;;;;2.67;0.90;;;23.80;80.80;;;;;;5003371;28;19902;-92
2020/12/22 08:12:01;;;;;;;4.28;1.02;;;23.80;80.90;;;;;;4999849;28;20034;-91
2020/12/22 08:14:29;;;;;;;2.17;1.00;;;23.80;80.50;;;;;;5005110;28;20030;-92
2020/12/22 08:17:06;;;;;;;1.85;1.08;;;23.80;80.40;;;;;;4998839;28;20065;-92
2020/12/22 08:19:36;;;;;;;0.70;0.60;;;23.80;80.10;;;;;;5005662;28;20031;-94
2020/12/22 08:22:06;;;;;;;1.40;0.90;;;23.80;79.90;;;;;;5000604;28;20121;-94
2020/12/22 08:24:37;;;;;;;0.88;0.70;;;23.80;79.70;;;;;;5005763;28;20310;-94
2020/12/22 08:27:07;;;;;;;0.75;0.70;;;23.80;79.60;;;;;;4999809;28;20101;-94
2020/12/22 08:29:41;;;;;;;2.38;1.00;;;23.80;80.00;;;;;;5005539;28;20022;-95
2020/12/22 08:32:09;;;;;;;0.90;0.60;;;23.90;80.50;;;;;;5000846;28;20041;-94
2020/12/22 08:34:35;;;;;;;3.65;0.80;;;23.80;81.00;;;;;;5005387;28;20045;-94
2020/12/22 08:40:32;;;;;;;3.03;1.02;;;23.90;81.30;;;;;;5006885;28;20239;-94
2020/12/22 08:43:03;;;;;;;1.73;1.25;;;23.90;80.60;;;;;;4999636;28;20061;-95
2020/12/22 08:45:30;;;;;;;1.95;0.75;;;23.90;80.90;;;;;;5005528;28;20070;-95
2020/12/22 08:48:00;;;;;;;1.58;0.90;;;23.90;80.70;;;;;;4999259;28;20030;-94
2020/12/22 08:50:51;;;;;;;1.95;0.80;;;23.90;81.00;;;;;;5005171;28;20029;-94
2020/12/22 08:53:18;;;;;;;1.33;0.80;;;23.90;81.10;;;;;;5001784;28;20037;-95
2020/12/22 08:55:47;;;;;;;1.75;0.80;;;24.00;80.90;;;;;;5005132;28;20030;-95
2020/12/22 08:58:13;;;;;;;1.35;0.65;;;24.00;80.80;;;;;;5005505;28;20066;-93
2020/12/22 09:00:40;;;;;;;2.13;1.10;;;24.10;80.70;;;;;;5004973;28;20041;-93
2020/12/22 09:03:07;;;;;;;2.38;1.00;;;24.10;80.40;;;;;;5000147;28;20061;-93
2020/12/22 09:05:37;;;;;;;2.05;0.80;;;24.20;80.00;;;;;;5005183;28;20030;-93
2020/12/22 09:08:07;;;;;;;1.15;0.70;;;24.20;79.60;;;;;;4999414;28;20042;-95
2020/12/22 09:10:45;;;;;;;2.42;1.08;;;24.20;79.70;;;;;;5005125;28;20022;-93
2020/12/22 09:13:16;;;;;;;1.42;0.85;;;24.30;79.30;;;;;;5000728;28;20101;-94
2020/12/22 09:15:55;;;;;;;2.78;1.10;;;24.40;79.10;;;;;;5005236;28;20032;-96
2020/12/22 09:18:22;;;;;;;2.10;0.95;;;24.30;79.30;;;;;;5006134;28;20061;-93
2020/12/22 09:21:07;;;;;;;1.50;0.90;;;24.30;79.40;;;;;;4997697;28;20033;-95
2020/12/22 09:23:44;;;;;;;1.88;0.80;;;24.30;79.20;;;;;;5006220;28;20038;-95
2020/12/22 09:26:11;;;;;;;1.30;0.88;;;24.40;78.80;;;;;;5008620;28;20049;-95
2020/12/22 09:28:37;;;;;;;2.83;1.17;;;24.40;78.60;;;;;;5010546;28;20140;-96
2020/12/22 09:31:06;;;;;;;1.20;0.70;;;24.40;78.70;;;;;;5009809;28;20323;-94
2020/12/22 09:33:41;;;;;;;0.90;0.75;;;24.40;78.90;;;;;;5008026;28;20041;-96
2020/12/22 09:36:12;;;;;;;1.67;1.08;;;24.50;78.90;;;;;;5008483;28;20025;-95
2020/12/22 09:38:39;;;;;;;1.00;0.70;;;24.50;78.40;;;;;;5007877;28;20038;-94
2020/12/22 09:41:06;;;;;;;1.75;0.60;;;24.50;78.70;;;;;;5010086;28;20033;-95
2020/12/22 09:43:33;;;;;;;1.00;0.90;;;24.50;78.70;;;;;;5012093;28;20041;-95
2020/12/22 09:45:59;;;;;;;1.48;0.75;;;24.50;79.10;;;;;;5011901;28;20034;-94
2020/12/22 09:48:26;;;;;;;1.88;1.10;;;24.50;79.00;;;;;;5011859;28;20044;-95
2020/12/22 09:50:53;;;;;;;1.63;0.90;;;24.50;79.10;;;;;;5011592;28;20033;-95
2020/12/22 09:53:20;;;;;;;1.65;0.80;;;24.50;79.30;;;;;;5011977;28;20189;-95
2020/12/22 09:55:50;;;;;;;1.25;0.80;;;24.50;79.30;;;;;;5011602;28;20068;-94
2020/12/22 10:01:13;;;;;;;1.40;0.90;;;24.50;79.50;;;;;;5029512;28;20062;-95
2020/12/22 10:03:43;;;;;;;1.08;0.70;;;24.50;79.70;;;;;;5028540;28;20046;-94
2020/12/22 10:06:10;;;;;;;1.98;1.10;;;24.50;80.00;;;;;;5010905;28;20203;-94
2020/12/22 10:08:38;;;;;;;1.05;0.70;;;24.50;80.30;;;;;;5011881;28;20038;-95
2020/12/22 10:11:14;;;;;;;1.30;0.90;;;24.50;80.20;;;;;;5012035;28;20025;-96
2020/12/22 10:19:49;;;;;;;1.60;1.00;;;24.60;80.50;;;;;;5029448;28;20098;-95
2020/12/22 10:22:16;;;;;;;4.03;0.93;;;24.50;80.80;;;;;;5031039;28;20317;-95
2020/12/22 10:24:42;;;;;;;1.98;1.00;;;24.50;80.50;;;;;;5030603;28;20075;-94
2020/12/22 10:27:12;;;;;;;3.55;1.15;;;24.50;80.60;;;;;;5031126;28;20032;-96
2020/12/22 10:29:39;;;;;;;1.70;1.08;;;24.50;80.90;;;;;;5030866;28;20052;-94
2020/12/22 10:32:06;;;;;;;1.65;1.10;;;24.50;81.00;;;;;;5030902;28;20022;-95
2020/12/22 10:34:44;;;;;;;10.90;0.90;;;24.50;81.10;;;;;;5030473;28;20030;-96
2020/12/22 10:37:11;;;;;;;2.63;1.35;;;24.50;80.60;;;;;;5014191;28;20313;-93
2020/12/22 10:39:40;;;;;;;2.10;1.10;;;24.50;80.70;;;;;;5030265;28;20064;-95
2020/12/22 10:42:20;;;;;;;2.00;1.00;;;24.50;80.70;;;;;;5033917;28;20104;-94
2020/12/22 10:45:14;;;;;;;2.25;1.10;;;24.50;80.80;;;;;;5015083;28;20034;-94
2020/12/22 10:47:52;;;;;;;2.28;0.82;;;24.50;81.10;;;;;;5014864;28;20294;-93
2020/12/22 10:50:19;;;;;;;7.40;1.00;;;24.50;81.20;;;;;;5014256;28;20038;-95
2020/12/22 10:52:45;;;;;;;2.05;0.90;;;24.60;81.80;;;;;;5011377;28;20112;-95
2020/12/22 10:55:22;;;;;;;2.50;0.98;;;24.50;81.80;;;;;;5015831;28;20034;-96
2020/12/22 10:58:08;;;;;;;2.78;1.30;;;24.50;81.50;;;;;;5017377;28;20049;-94
2020/12/22 11:09:44;;;;;;;1.75;1.10;;;24.60;81.50;;;;;;5019591;28;20060;-94
2020/12/22 11:15:35;;;;;;;2.53;1.10;;;24.60;81.20;;;;;;5053199;28;20226;-92
2020/12/22 11:18:21;;;;;;;1.80;1.10;;;24.60;81.00;;;;;;5016913;28;20076;-92
2020/12/22 11:20:48;;;;;;;6.38;1.20;;;24.70;80.60;;;;;;5015976;28;20034;-93
2020/12/22 11:23:33;;;;;;;5.07;1.50;;;24.70;80.80;;;;;;4999972;28;20094;-92
2020/12/22 11:31:19;;;;;;;2.40;1.30;;;24.70;80.80;;;;;;5009127;28;20049;-93
2020/12/22 11:33:15;;;;;;;3.35;1.30;;;24.80;80.80;;;;;;4968629;28;20085;-91
2020/12/22 11:35:46;;;;;;;3.88;1.67;;;24.90;80.80;;;;;;5007398;28;20045;-91
2020/12/22 11:38:14;;;;;;;3.28;1.52;;;24.90;80.90;;;;;;4994185;28;20119;-93
2020/12/22 11:40:48;;;;;;;3.13;1.35;;;24.90;81.00;;;;;;5009446;28;20046;-92
2020/12/22 12:01:13;;;;;;;3.38;1.38;;;25.30;80.80;;;;;;5875565;23;20070;-91
2020/12/22 12:03:53;;;;;;;4.40;1.45;;;25.40;80.20;;;;;;5049671;28;20064;-94
2020/12/22 12:06:24;;;;;;;3.65;1.65;;;25.40;80.10;;;;;;5044880;28;20033;-96
2020/12/22 12:08:56;;;;;;;6.13;1.48;;;25.50;80.30;;;;;;5047419;28;20030;-95
2020/12/22 12:11:32;;;;;;;3.58;1.70;;;25.60;79.60;;;;;;5054302;28;20013;-95
2020/12/22 12:14:36;;;;;;;3.65;1.00;;;25.60;80.00;;;;;;5048957;28;20017;-94
2020/12/22 12:18:00;;;;;;;12.07;1.60;;;25.70;79.70;;;;;;5017555;28;20033;-96
2020/12/22 12:20:33;;;;;;;;;;;25.80;79.30;;;;;;4957609;29;20039;-92
2020/12/22 12:28:28;;;;;;;3.33;1.30;;;26.00;78.70;;;;;;5340067;23;20360;-92
2020/12/22 12:30:56;;;;;;;6.55;1.38;;;26.10;78.70;;;;;;5036834;28;20164;-93
2020/12/22 12:33:27;;;;;;;4.43;1.60;;;26.20;78.20;;;;;;5028945;28;20037;-93
2020/12/22 12:36:00;;;;;;;2.85;1.50;;;26.10;78.30;;;;;;5030127;28;20033;-92
2020/12/22 12:38:46;;;;;;;5.50;1.80;;;26.30;78.00;;;;;;4994960;28;20042;-91
2020/12/22 12:41:13;;;;;;;5.38;1.40;;;26.30;78.00;;;;;;4993676;28;20046;-92
2020/12/22 12:43:51;;;;;;;2.75;1.10;;;26.30;77.50;;;;;;4977367;28;20095;-90
2020/12/22 12:46:18;;;;;;;4.40;1.40;;;26.20;77.40;;;;;;4977906;28;20034;-93
2020/12/22 12:49:13;;;;;;;3.08;1.58;;;26.10;77.80;;;;;;4980382;28;20030;-93
2020/12/22 12:51:58;;;;;;;6.55;2.80;;;26.20;76.70;;;;;;4980922;28;20026;-95
2020/12/22 12:54:30;;;;;;;7.28;1.95;;;26.30;76.90;;;;;;4996219;28;20109;-94
2020/12/22 12:57:15;;;;;;;;;;;26.30;75.90;;;;;;4995770;28;20076;-95
2020/12/22 12:59:43;;;;;;;4.03;1.60;;;26.50;75.10;;;;;;4993665;28;19971;-93
2020/12/22 13:02:12;;;;;;;2.65;1.00;;;26.60;74.60;;;;;;4998656;28;20030;-91
2020/12/22 13:05:12;;;;;;;3.35;1.33;;;26.80;74.30;;;;;;4994273;28;20072;-91
2020/12/22 13:07:40;;;;;;;3.25;2.00;;;27.00;74.40;;;;;;4961626;28;20042;-92
2020/12/22 13:10:14;;;;;;;2.83;1.80;;;27.10;74.90;;;;;;4998027;28;20104;-91
2020/12/22 13:12:48;;;;;;;3.00;1.40;;;27.20;74.50;;;;;;5032776;28;20029;-94
2020/12/22 13:15:18;;;;;;;1.65;1.02;;;27.20;74.60;;;;;;5034859;28;20030;-92
2020/12/22 13:17:45;;;;;;;2.97;1.75;;;27.30;74.70;;;;;;5031966;28;20183;-93
2020/12/22 13:20:11;;;;;;;3.80;1.05;;;27.20;75.40;;;;;;5034999;28;20038;-93
2020/12/22 13:22:38;;;;;;;2.60;0.98;;;27.20;74.90;;;;;;5032940;28;20025;-92
2020/12/22 13:25:07;;;;;;;7.03;1.33;;;27.30;74.80;;;;;;5031134;28;20030;-93
2020/12/22 13:27:36;;;;;;;4.18;1.10;;;27.30;74.80;;;;;;5032272;28;20055;-94
2020/12/22 13:30:04;;;;;;;3.63;1.30;;;27.30;75.20;;;;;;5010844;28;20050;-95
2020/12/22 13:32:35;;;;;;;2.90;1.20;;;27.30;75.00;;;;;;4994442;28;20034;-93
2020/12/22 13:35:02;;;;;;;3.03;1.02;;;27.40;75.10;;;;;;4994489;28;20380;-92
2020/12/22 13:37:35;;;;;;;3.05;0.95;;;27.40;75.10;;;;;;5010069;28;20030;-92
2020/12/22 13:40:14;;;;;;;4.45;1.33;;;27.40;75.30;;;;;;4994764;28;20035;-93
2020/12/22 13:42:41;;;;;;;2.15;0.80;;;27.50;75.60;;;;;;4992485;28;20018;-92
2020/12/22 13:45:07;;;;;;;2.88;0.80;;;27.50;76.00;;;;;;4991355;28;20058;-95
2020/12/22 13:47:34;;;;;;;7.05;0.90;;;27.50;76.60;;;;;;4992907;28;20031;-93
2020/12/22 13:50:01;;;;;;;1.85;1.10;;;27.60;76.70;;;;;;4993113;28;20038;-93
2020/12/22 13:52:49;;;;;;;4.95;1.27;;;27.70;76.40;;;;;;4990078;28;20061;-95
2020/12/22 13:56:05;;;;;;;4.90;2.10;;;27.90;76.00;;;;;;5010201;28;20097;-94
2020/12/22 13:58:34;;;;;;;2.92;1.40;;;27.90;77.10;;;;;;4970615;28;20034;-94
2020/12/22 14:01:28;;;;;;;5.28;1.55;;;28.10;75.80;;;;;;4998179;28;20093;-94
2020/12/22 14:03:59;;;;;;;3.70;1.02;;;28.40;74.30;;;;;;4993139;28;20038;-91
2020/12/22 14:06:26;;;;;;;4.50;1.30;;;28.40;72.70;;;;;;4980545;28;20050;-90
2020/12/22 14:08:54;;;;;;;6.82;1.42;;;28.70;72.10;;;;;;4996223;28;20042;-92
2020/12/22 14:11:26;;;;;;;2.50;1.08;;;28.90;71.60;;;;;;4991290;28;20030;-93
2020/12/22 14:13:56;;;;;;;2.78;1.35;;;29.00;70.90;;;;;;5008128;28;20101;-93
2020/12/22 14:16:26;;;;;;;3.00;1.20;;;29.50;71.20;;;;;;4979757;28;20045;-93
2020/12/22 14:18:53;;;;;;;4.80;1.40;;;30.20;69.00;;;;;;4993581;28;20014;-90
2020/12/22 14:22:21;;;;;;;3.20;1.08;;;30.60;66.50;;;;;;4996442;28;20027;-95
2020/12/22 14:28:34;;;;;;;24.77;15.80;;;31.10;63.70;;;;;;4916027;29;20063;-92
2020/12/22 14:32:25;;;;;;;;;;;;;;;;;;;;;
2020/12/22 14:38:33;;;;;;;1.33;0.80;;;30.60;64.20;;;;;;4937634;29;20072;-94
2020/12/22 14:41:00;;;;;;;1.73;0.80;;;30.30;64.30;;;;;;4939940;29;20028;-94
2020/12/22 14:43:36;;;;;;;1.88;0.93;;;30.20;64.40;;;;;;4939909;29;20344;-95
2020/12/22 14:46:06;;;;;;;5.32;0.85;;;30.30;65.00;;;;;;4940466;29;20032;-94
2020/12/22 14:57:48;;;;;;;4.30;3.17;;;32.10;60.60;;;;;;5031687;23;20033;-87
2020/12/22 15:00:17;;;;;;;4.82;1.42;;;31.60;62.20;;;;;;5079428;28;20032;-88
2020/12/22 15:02:44;;;;;;;1.95;0.75;;;31.20;63.00;;;;;;5045358;28;20017;-89
2020/12/22 15:05:14;;;;;;;1.33;0.60;;;31.00;63.20;;;;;;5061668;28;20077;-94
2020/12/22 15:07:49;;;;;;;1.90;0.70;;;31.20;63.00;;;;;;5044071;28;20044;-91
2020/12/22 15:10:16;;;;;;;4.72;0.80;;;31.80;60.70;;;;;;5028251;28;20033;-94
2020/12/22 15:12:43;;;;;;;2.15;1.00;;;32.20;59.50;;;;;;5054641;28;20040;-93
2020/12/22 15:15:16;;;;;;;5.03;0.90;;;31.90;59.70;;;;;;5070966;28;20309;-93
2020/12/22 15:17:56;;;;;;;2.80;0.80;;;31.90;61.30;;;;;;5053558;28;20041;-93
2020/12/22 15:20:27;;;;;;;2.28;1.00;;;32.50;60.70;;;;;;5051011;28;20326;-92
2020/12/22 15:22:58;;;;;;;2.33;0.95;;;32.80;58.70;;;;;;5053325;28;20029;-94
2020/12/22 15:25:33;;;;;;;3.70;3.00;;;33.20;60.50;;;;;;5051486;28;20187;-94
2020/12/22 15:28:17;;;;;;;2.55;1.42;;;33.30;59.60;;;;;;5037213;28;20064;-94
2020/12/22 15:30:44;;;;;;;2.70;1.40;;;33.40;60.00;;;;;;5055657;28;20048;-95
2020/12/22 15:39:17;;;;;;;7.20;2.67;;;33.70;59.20;;;;;;5037850;28;20083;-93
2020/12/22 15:41:56;;;;;;;29.92;2.83;;;32.90;61.70;;;;;;5046987;28;20048;-92